Time;durP1;ratioP1;P1;durP2;ratioP2;P2;SDS_P1;SDS_P2;PMS_P1;PMS_P2;Temp;Humidity;BMP_temperature;BMP_pressure;BME280_temperature;BME280_humidity;BME280_pressure;Samples;Min_cycle;Max_cycle;Signal;HPM_P1;HPM_P2
2021/11/22 00:01:29;;;;;;;44.88;25.40;;;;;;;8.30;100.00;100741.56;4936856;29;20036;-68
2021/11/22 00:04:16;;;;;;;39.60;24.60;;;;;;;8.70;100.00;100747.28;4938300;29;20438;-68
2021/11/22 00:07:02;;;;;;;39.72;24.42;;;;;;;8.70;100.00;100750.78;4937411;29;20098;-68
2021/11/22 00:09:48;;;;;;;37.92;24.35;;;;;;;8.85;100.00;100745.38;4937646;29;20051;-67
2021/11/22 00:12:35;;;;;;;36.72;23.95;;;;;;;8.51;100.00;100745.72;4937747;29;20031;-68
2021/11/22 00:15:20;;;;;;;37.15;24.50;;;;;;;8.42;100.00;100746.69;4937496;29;20046;-68
2021/11/22 00:18:06;;;;;;;39.88;23.40;;;;;;;8.97;100.00;100744.41;4937682;29;20095;-68
2021/11/22 00:20:52;;;;;;;36.88;24.67;;;;;;;9.11;100.00;100747.72;4936717;29;20028;-69
2021/11/22 00:23:38;;;;;;;38.95;24.77;;;;;;;8.79;100.00;100745.47;4937670;29;20035;-68
2021/11/22 00:26:24;;;;;;;37.67;24.67;;;;;;;8.59;100.00;100755.22;4937062;29;20470;-68
2021/11/22 00:29:09;;;;;;;39.20;24.83;;;;;;;8.64;100.00;100755.22;4937385;29;20368;-68
2021/11/22 00:31:55;;;;;;;34.75;22.88;;;;;;;8.61;100.00;100763.06;4937709;29;20027;-69
2021/11/22 00:34:42;;;;;;;38.25;24.13;;;;;;;8.50;100.00;100763.16;4936612;29;20119;-68
2021/11/22 00:37:32;;;;;;;35.08;23.95;;;;;;;8.49;100.00;100771.00;4916959;29;20371;-68
2021/11/22 00:40:19;;;;;;;39.25;24.92;;;;;;;8.32;100.00;100759.84;4936383;29;20320;-68
2021/11/22 00:43:05;;;;;;;35.25;23.70;;;;;;;8.63;100.00;100758.69;4936728;29;20090;-68
2021/11/22 00:45:52;;;;;;;35.10;24.13;;;;;;;8.44;100.00;100759.72;4937968;29;20479;-70
2021/11/22 00:48:38;;;;;;;32.70;22.83;;;;;;;8.67;100.00;100760.38;4937345;29;20036;-69
2021/11/22 00:51:24;;;;;;;32.22;21.90;;;;;;;8.49;100.00;100757.94;4937774;29;20038;-69
2021/11/22 00:54:09;;;;;;;32.25;22.05;;;;;;;8.60;100.00;100763.94;4922087;29;20133;-68
2021/11/22 00:56:55;;;;;;;32.53;21.50;;;;;;;8.60;100.00;100761.34;4937632;29;20059;-72
2021/11/22 00:59:41;;;;;;;34.05;21.88;;;;;;;8.66;100.00;100745.59;4936936;29;20032;-69
2021/11/22 01:02:27;;;;;;;33.13;21.13;;;;;;;8.28;100.00;100747.69;4936831;29;20020;-68
2021/11/22 01:05:14;;;;;;;30.75;21.10;;;;;;;8.63;100.00;100746.50;4923801;29;20377;-68
2021/11/22 01:08:01;;;;;;;30.05;20.92;;;;;;;8.40;100.00;100745.81;4936850;29;20110;-68
2021/11/22 01:10:46;;;;;;;30.58;21.48;;;;;;;8.26;100.00;100746.81;4922835;29;20028;-71
2021/11/22 01:13:32;;;;;;;34.65;22.55;;;;;;;8.07;100.00;100740.84;4937320;29;20023;-71
2021/11/22 01:16:18;;;;;;;31.35;21.63;;;;;;;8.27;100.00;100748.53;4936888;29;20024;-69
2021/11/22 01:19:05;;;;;;;29.85;20.02;;;;;;;7.93;100.00;100747.03;4936778;29;20023;-69
2021/11/22 01:21:51;;;;;;;28.80;20.23;;;;;;;7.96;100.00;100741.78;4936904;29;20422;-69
2021/11/22 01:24:37;;;;;;;27.40;19.60;;;;;;;7.93;100.00;100747.91;4936616;29;20031;-71
2021/11/22 01:27:23;;;;;;;32.85;21.20;;;;;;;7.37;100.00;100752.53;4924654;29;20179;-68
2021/11/22 01:30:11;;;;;;;32.30;21.67;;;;;;;7.60;100.00;100745.47;4918126;29;20034;-69
2021/11/22 01:32:56;;;;;;;33.03;22.02;;;;;;;7.86;100.00;100746.19;4926955;29;20035;-69
2021/11/22 01:35:44;;;;;;;30.08;20.50;;;;;;;7.82;100.00;100743.59;4939980;29;20464;-69
2021/11/22 01:38:30;;;;;;;31.73;20.38;;;;;;;7.49;100.00;100749.00;4921554;29;20048;-69
2021/11/22 01:41:16;;;;;;;29.25;20.27;;;;;;;7.77;100.00;100746.25;4906326;29;20111;-68
2021/11/22 01:44:02;;;;;;;28.85;20.85;;;;;;;7.90;100.00;100747.03;4921076;29;20040;-69
2021/11/22 01:46:51;;;;;;;31.65;21.02;;;;;;;7.35;100.00;100748.22;4919971;29;20028;-69
2021/11/22 01:49:37;;;;;;;32.90;20.45;;;;;;;7.18;100.00;100747.38;4921031;29;20072;-69
2021/11/22 01:52:22;;;;;;;26.77;19.73;;;;;;;7.23;100.00;100740.44;4920491;29;20031;-68
2021/11/22 01:55:10;;;;;;;31.17;20.90;;;;;;;7.16;100.00;100741.31;4919949;29;20024;-68
2021/11/22 01:57:57;;;;;;;30.02;20.08;;;;;;;7.17;100.00;100740.44;4921226;29;20156;-69
2021/11/22 02:00:50;;;;;;;28.52;19.75;;;;;;;6.80;100.00;100736.22;4919649;29;20028;-69
2021/11/22 02:03:35;;;;;;;32.97;20.52;;;;;;;7.08;100.00;100740.47;4908031;29;20020;-69
2021/11/22 02:06:21;;;;;;;31.10;20.73;;;;;;;7.37;100.00;100744.72;4919883;29;20036;-69
2021/11/22 02:09:08;;;;;;;34.22;22.23;;;;;;;7.50;100.00;100738.56;4920892;29;20445;-68
2021/11/22 02:11:54;;;;;;;34.60;21.45;;;;;;;6.70;100.00;100742.28;4907172;29;20107;-68
2021/11/22 02:14:40;;;;;;;30.48;21.33;;;;;;;7.19;100.00;100741.31;4919438;29;20052;-68
2021/11/22 02:17:26;;;;;;;31.33;21.90;;;;;;;6.70;100.00;100729.28;4907049;29;20028;-69
2021/11/22 02:20:15;;;;;;;31.00;21.45;;;;;;;7.01;100.00;100737.03;4919409;29;20108;-69
2021/11/22 02:23:12;;;;;;;32.75;22.42;;;;;;;6.99;100.00;100740.50;4919320;29;20028;-68
2021/11/22 02:25:57;;;;;;;33.30;22.88;;;;;;;7.27;100.00;100747.38;4905483;29;20119;-68
2021/11/22 02:28:43;;;;;;;32.28;22.25;;;;;;;7.37;100.00;100747.31;4906528;29;20028;-68
2021/11/22 02:31:29;;;;;;;34.03;22.92;;;;;;;7.62;100.00;100743.72;4919228;29;20051;-70
2021/11/22 02:34:15;;;;;;;34.97;22.90;;;;;;;7.24;100.00;100742.16;4919287;29;20056;-68
2021/11/22 02:37:01;;;;;;;35.33;22.50;;;;;;;6.66;100.00;100749.25;4928835;29;20060;-68
2021/11/22 02:39:47;;;;;;;37.85;22.98;;;;;;;6.65;100.00;100741.44;4938517;29;20451;-69
2021/11/22 02:42:36;;;;;;;40.15;23.95;;;;;;;6.35;100.00;100739.72;4939134;29;20489;-67
2021/11/22 02:45:22;;;;;;;40.22;23.48;;;;;;;6.41;100.00;100744.06;4939753;29;20031;-68
2021/11/22 02:48:08;;;;;;;35.47;23.00;;;;;;;6.61;100.00;100747.50;4939491;29;20355;-68
2021/11/22 02:50:54;;;;;;;36.03;22.75;;;;;;;6.78;100.00;100745.75;4925002;29;20039;-69
2021/11/22 02:53:40;;;;;;;35.33;21.85;;;;;;;6.31;100.00;100748.38;4925997;29;20031;-68
2021/11/22 02:56:31;;;;;;;34.13;22.40;;;;;;;6.22;100.00;100742.34;4924169;29;20427;-68
2021/11/22 02:59:17;;;;;;;34.53;21.48;;;;;;;6.27;100.00;100748.41;4925650;29;20132;-69
2021/11/22 03:02:03;;;;;;;32.70;21.92;;;;;;;6.67;100.00;100755.34;4938659;29;20028;-69
2021/11/22 03:04:49;;;;;;;35.17;22.45;;;;;;;6.59;100.00;100757.06;4938780;29;20035;-68
2021/11/22 03:07:35;;;;;;;33.50;22.50;;;;;;;6.25;100.00;100752.72;4938703;29;20418;-68
2021/11/22 03:10:23;;;;;;;33.88;21.60;;;;;;;6.68;100.00;100760.53;4939093;29;20023;-68
2021/11/22 03:13:10;;;;;;;35.47;21.98;;;;;;;7.03;100.00;100763.94;4938540;29;20119;-68
2021/11/22 03:15:56;;;;;;;37.08;22.73;;;;;;;7.40;100.00;100764.69;4925158;29;20071;-68
2021/11/22 03:18:42;;;;;;;34.00;22.75;;;;;;;7.30;100.00;100770.78;4939112;29;20064;-68
2021/11/22 03:21:28;;;;;;;35.63;24.10;;;;;;;6.80;100.00;100770.94;4938625;29;20024;-68
2021/11/22 03:24:14;;;;;;;36.78;23.90;;;;;;;6.81;100.00;100766.56;4938364;29;20031;-68
2021/11/22 03:27:01;;;;;;;38.35;24.20;;;;;;;6.76;100.00;100768.31;4938465;29;20024;-68
2021/11/22 03:29:46;;;;;;;37.33;24.13;;;;;;;6.69;100.00;100777.00;4938577;29;20039;-69
2021/11/22 03:32:32;;;;;;;36.42;22.98;;;;;;;7.11;100.00;100776.94;4938106;29;20142;-68
2021/11/22 03:35:18;;;;;;;34.42;22.52;;;;;;;6.92;100.00;100772.66;4923381;29;20126;-68
2021/11/22 03:38:04;;;;;;;34.65;22.85;;;;;;;6.95;100.00;100775.25;4937824;29;20118;-68
2021/11/22 03:40:52;;;;;;;36.20;23.40;;;;;;;6.87;100.00;100777.00;4938300;29;20074;-68
2021/11/22 03:43:47;;;;;;;34.38;22.90;;;;;;;6.86;100.00;100770.91;4923530;29;20041;-68
2021/11/22 03:46:33;;;;;;;37.15;23.55;;;;;;;7.29;100.00;100784.69;4938454;29;20110;-68
2021/11/22 03:49:19;;;;;;;39.60;24.27;;;;;;;7.06;100.00;100776.94;4937731;29;20418;-67
2021/11/22 03:52:05;;;;;;;36.78;23.95;;;;;;;7.16;100.00;100776.03;4937536;29;20038;-68
2021/11/22 03:54:51;;;;;;;36.40;24.33;;;;;;;7.31;100.00;100786.41;4923982;29;20032;-68
2021/11/22 03:57:37;;;;;;;39.28;24.88;;;;;;;7.37;100.00;100785.53;4922802;29;20035;-68
2021/11/22 04:00:24;;;;;;;40.17;25.35;;;;;;;7.56;100.00;100787.22;4937742;29;20031;-68
2021/11/22 04:03:10;;;;;;;38.47;23.83;;;;;;;7.20;100.00;100790.78;4937312;29;20455;-68
2021/11/22 04:05:57;;;;;;;36.63;24.75;;;;;;;7.24;100.00;100789.06;4938411;29;20563;-68
2021/11/22 04:08:43;;;;;;;36.70;23.60;;;;;;;7.25;100.00;100790.78;4924098;29;20410;-69
2021/11/22 04:11:29;;;;;;;34.00;22.98;;;;;;;7.04;100.00;100802.16;4937787;29;20066;-68
2021/11/22 04:14:15;;;;;;;37.10;23.92;;;;;;;7.01;100.00;100794.34;4937912;29;20426;-69
2021/11/22 04:17:01;;;;;;;38.95;24.42;;;;;;;7.47;100.00;100793.31;4936607;29;20074;-68
2021/11/22 04:19:47;;;;;;;39.40;23.40;;;;;;;7.15;100.00;100794.31;4937352;29;20032;-68
2021/11/22 04:22:33;;;;;;;34.85;22.98;;;;;;;7.27;100.00;100804.69;4937797;29;20036;-68
2021/11/22 04:25:22;;;;;;;35.15;24.08;;;;;;;7.55;100.00;100793.31;4937264;29;20078;-69
2021/11/22 04:28:10;;;;;;;38.42;23.63;;;;;;;7.33;100.00;100786.41;4924135;29;20455;-68
2021/11/22 04:30:56;;;;;;;36.00;24.15;;;;;;;7.39;100.00;100791.63;4937959;29;20043;-68
2021/11/22 04:33:41;;;;;;;39.22;24.80;;;;;;;7.33;100.00;100797.72;4937441;29;20480;-68
2021/11/22 04:36:27;;;;;;;35.70;23.70;;;;;;;7.68;100.00;100803.66;4923616;29;20545;-68
2021/11/22 04:39:13;;;;;;;37.10;24.20;;;;;;;7.68;100.00;100808.88;4937330;29;20050;-68
2021/11/22 04:41:59;;;;;;;38.67;24.10;;;;;;;7.49;100.00;100811.56;4937360;29;20031;-68
2021/11/22 04:44:44;;;;;;;36.80;24.13;;;;;;;7.06;100.00;100807.31;4937002;29;20032;-68
2021/11/22 04:47:31;;;;;;;39.08;24.95;;;;;;;7.19;100.00;100814.28;4937315;29;20023;-68
2021/11/22 04:50:18;;;;;;;35.40;23.63;;;;;;;7.24;100.00;100817.72;4922979;29;20024;-69
2021/11/22 04:53:04;;;;;;;36.42;23.65;;;;;;;7.46;100.00;100812.44;4937262;29;20367;-69
2021/11/22 04:55:51;;;;;;;40.70;26.00;;;;;;;7.26;100.00;100814.25;4936869;29;20084;-69
2021/11/22 04:58:37;;;;;;;35.05;23.83;;;;;;;7.42;100.00;100810.72;4937140;29;20027;-68
2021/11/22 05:01:22;;;;;;;38.33;26.25;;;;;;;7.11;100.00;100810.81;4922836;29;20046;-68
2021/11/22 05:04:10;;;;;;;37.92;25.13;;;;;;;7.37;100.00;100811.59;4941982;29;20114;-68
2021/11/22 05:06:56;;;;;;;37.47;25.75;;;;;;;7.45;100.00;100812.44;4941283;29;20035;-69
2021/11/22 05:09:46;;;;;;;40.55;25.13;;;;;;;7.33;100.00;100815.09;4939606;29;20032;-68
2021/11/22 05:12:31;;;;;;;41.47;26.23;;;;;;;7.36;100.00;100815.94;4941021;29;20032;-68
2021/11/22 05:15:17;;;;;;;42.28;25.52;;;;;;;7.58;100.00;100825.44;4940807;29;20320;-68
2021/11/22 05:18:05;;;;;;;39.00;24.48;;;;;;;7.47;100.00;100823.75;4940733;29;20047;-68
2021/11/22 05:20:51;;;;;;;41.25;25.90;;;;;;;7.75;100.00;100825.34;4940528;29;20094;-69
2021/11/22 05:23:36;;;;;;;37.83;24.33;;;;;;;7.22;100.00;100814.25;4939279;29;20042;-69
2021/11/22 05:26:22;;;;;;;37.72;24.88;;;;;;;7.42;100.00;100834.19;4940922;29;20054;-68
2021/11/22 05:29:08;;;;;;;42.13;26.88;;;;;;;7.46;100.00;100840.22;4940810;29;20043;-69
2021/11/22 05:31:54;;;;;;;41.97;27.73;;;;;;;7.63;100.00;100841.91;4939305;29;20455;-68
2021/11/22 05:34:40;;;;;;;44.17;26.75;;;;;;;7.29;100.00;100848.13;4940391;29;20182;-68
2021/11/22 05:37:28;;;;;;;46.22;29.83;;;;;;;7.34;100.00;100858.50;4940146;29;20369;-69
2021/11/22 05:40:13;;;;;;;51.47;33.33;;;;;;;7.35;100.00;100857.66;4940322;29;20039;-68
2021/11/22 05:42:59;;;;;;;48.42;29.63;;;;;;;6.94;100.00;100856.84;4940001;29;20055;-69
2021/11/22 05:45:45;;;;;;;46.45;28.25;;;;;;;6.91;100.00;100867.28;4926984;29;20032;-68
2021/11/22 05:48:31;;;;;;;39.28;25.95;;;;;;;6.89;100.00;100867.28;4940921;29;20110;-69
2021/11/22 05:51:18;;;;;;;36.50;25.25;;;;;;;6.72;100.00;100875.94;4940182;29;20471;-68
2021/11/22 05:54:04;;;;;;;40.38;24.02;;;;;;;6.98;100.00;100874.19;4926927;29;20035;-68
2021/11/22 05:56:51;;;;;;;40.88;25.58;;;;;;;7.01;100.00;100871.59;4938877;29;20020;-68
2021/11/22 05:59:37;;;;;;;37.58;24.17;;;;;;;6.99;100.00;100874.19;4925814;29;20384;-69
2021/11/22 06:02:23;;;;;;;37.72;24.23;;;;;;;6.82;100.00;100883.75;4926538;29;20047;-68
2021/11/22 06:05:09;;;;;;;42.55;26.05;;;;;;;6.62;100.00;100890.69;4940090;29;20438;-68
2021/11/22 06:07:55;;;;;;;43.42;27.65;;;;;;;6.02;100.00;100895.75;4939434;29;20036;-68
2021/11/22 06:10:41;;;;;;;46.97;28.90;;;;;;;5.86;100.00;100887.91;4940147;29;20504;-69
2021/11/22 06:13:26;;;;;;;47.83;30.02;;;;;;;6.21;100.00;100894.06;4939201;29;20190;-68
2021/11/22 06:16:12;;;;;;;57.42;31.60;;;;;;;6.36;100.00;100887.19;4939954;29;20031;-69
2021/11/22 06:18:58;;;;;;;50.17;31.30;;;;;;;6.32;100.00;100893.25;4939611;29;20034;-68
2021/11/22 06:21:44;;;;;;;56.15;33.58;;;;;;;6.73;100.00;100895.91;4939516;29;20036;-68
2021/11/22 06:24:30;;;;;;;54.78;34.40;;;;;;;6.62;100.00;100889.81;4940126;29;20110;-68
2021/11/22 06:27:16;;;;;;;68.47;39.20;;;;;;;6.58;100.00;100901.97;4939077;29;20028;-68
2021/11/22 06:30:06;;;;;;;71.07;41.05;;;;;;;6.92;100.00;100906.34;4939875;29;20028;-69
2021/11/22 06:32:53;;;;;;;59.47;38.20;;;;;;;7.49;100.00;100903.69;4939277;29;20362;-69
2021/11/22 06:35:39;;;;;;;70.95;43.17;;;;;;;7.45;100.00;100907.16;4939855;29;20035;-68
2021/11/22 06:38:25;;;;;;;75.47;44.60;;;;;;;7.07;100.00;100915.88;4937566;29;20119;-69
2021/11/22 06:41:11;;;;;;;73.43;44.90;;;;;;;7.60;100.00;100920.13;4939203;29;20463;-69
2021/11/22 06:43:57;;;;;;;76.82;46.33;;;;;;;7.86;100.00;100926.16;4939004;29;20114;-68
2021/11/22 06:46:44;;;;;;;76.93;45.00;;;;;;;8.30;100.00;100926.00;4939121;29;20024;-68
2021/11/22 06:49:31;;;;;;;66.35;41.08;;;;;;;8.46;100.00;100930.28;4925516;29;20027;-68
2021/11/22 06:52:18;;;;;;;66.03;37.80;;;;;;;8.23;100.00;100929.50;4939019;29;20028;-69
2021/11/22 06:55:05;;;;;;;62.65;38.95;;;;;;;8.47;100.00;100929.38;4938798;29;20031;-69
2021/11/22 06:57:51;;;;;;;60.38;34.95;;;;;;;8.58;100.00;100930.19;4938239;29;20040;-68
2021/11/22 07:00:37;;;;;;;49.97;33.30;;;;;;;9.20;100.00;100928.88;4923688;29;20031;-68
2021/11/22 07:03:25;;;;;;;47.90;31.83;;;;;;;9.33;100.00;100937.47;4939291;29;20027;-67
2021/11/22 07:06:10;;;;;;;56.25;31.55;;;;;;;8.94;100.00;100937.78;4938226;29;20039;-68
2021/11/22 07:08:56;;;;;;;48.90;31.63;;;;;;;9.53;100.00;100931.16;4938674;29;20059;-69
2021/11/22 07:11:43;;;;;;;50.17;30.92;;;;;;;9.91;100.00;100936.00;4939120;29;20345;-69
2021/11/22 07:14:29;;;;;;;47.40;30.95;;;;;;;9.54;100.00;100937.28;4924948;29;20049;-68
2021/11/22 07:17:15;;;;;;;55.47;32.70;;;;;;;10.06;100.00;100943.72;4938346;29;20046;-69
2021/11/22 07:20:01;;;;;;;63.95;35.05;;;;;;;10.22;100.00;100937.41;4938816;29;20054;-68
2021/11/22 07:22:47;;;;;;;57.33;32.53;;;;;;;10.15;100.00;100943.59;4924487;29;20094;-68
2021/11/22 07:25:33;;;;;;;43.92;27.65;;;;;;;10.22;100.00;100950.50;4937442;29;20031;-68
2021/11/22 07:28:20;;;;;;;42.83;27.52;;;;;;;10.55;100.00;100947.44;4938216;29;20032;-67
2021/11/22 07:31:06;;;;;;;37.97;25.55;;;;;;;10.59;100.00;100951.75;4938313;29;20027;-68
2021/11/22 07:33:52;;;;;;;46.10;28.08;;;;;;;10.98;100.00;100948.56;4924474;29;20111;-68
2021/11/22 07:36:37;;;;;;;43.88;29.33;;;;;;;11.80;100.00;100950.63;4922659;29;20478;-68
2021/11/22 07:39:23;;;;;;;51.28;31.08;;;;;;;12.14;100.00;100959.63;4938825;29;20379;-70
2021/11/22 07:42:10;;;;;;;45.60;29.35;;;;;;;11.80;100.00;100963.75;4938320;29;20032;-70
2021/11/22 07:44:56;;;;;;;47.65;29.98;;;;;;;12.23;100.00;100967.31;4937791;29;20112;-70
2021/11/22 07:47:42;;;;;;;44.28;29.80;;;;;;;12.75;100.00;100966.19;4937947;29;20035;-69
2021/11/22 07:50:29;;;;;;;47.13;30.45;;;;;;;12.98;100.00;100965.69;4923229;29;20039;-69
2021/11/22 07:53:15;;;;;;;53.80;32.20;;;;;;;12.74;100.00;100961.78;4937935;29;20028;-70
2021/11/22 07:56:01;;;;;;;42.60;29.77;;;;;;;12.84;100.00;100975.59;4938176;29;20055;-70
2021/11/22 07:58:47;;;;;;;41.20;27.92;;;;;;;12.91;100.00;100978.06;4923693;29;20098;-70
2021/11/22 08:01:33;;;;;;;49.03;29.10;;;;;;;13.57;100.00;100973.84;4924203;29;20028;-70
2021/11/22 08:04:19;;;;;;;52.28;29.95;;;;;;;13.83;100.00;100976.66;4936516;29;20481;-70
2021/11/22 08:07:13;;;;;;;44.63;28.05;;;;;;;14.03;100.00;100981.41;4936851;29;20462;-71
2021/11/22 08:10:05;;;;;;;45.45;30.52;;;;;;;14.17;100.00;100976.59;4937793;29;20028;-70
2021/11/22 08:13:02;;;;;;;52.33;33.03;;;;;;;13.37;100.00;100981.38;4937085;29;20027;-70
2021/11/22 08:15:48;;;;;;;47.90;32.85;;;;;;;13.49;100.00;100981.06;4924228;29;20071;-69
2021/11/22 08:18:38;;;;;;;53.63;33.08;;;;;;;13.48;100.00;100984.63;4939449;29;20028;-69
2021/11/22 08:21:23;;;;;;;47.60;32.40;;;;;;;13.66;100.00;100988.53;4937444;29;20028;-70
2021/11/22 08:24:09;;;;;;;44.47;30.17;;;;;;;13.99;100.00;100985.03;4922975;29;20462;-69
2021/11/22 08:26:56;;;;;;;46.72;31.52;;;;;;;13.98;100.00;100989.41;4936627;29;20111;-70
2021/11/22 08:29:42;;;;;;;41.92;29.17;;;;;;;14.20;100.00;100987.91;4924290;29;20035;-71
2021/11/22 08:32:27;;;;;;;45.50;30.60;;;;;;;14.13;100.00;100973.19;4937225;29;20031;-70
2021/11/22 08:35:13;;;;;;;46.30;29.95;;;;;;;13.45;100.00;100978.53;4937300;29;20042;-70
2021/11/22 08:38:00;;;;;;;44.17;29.55;;;;;;;13.94;100.00;100984.25;4935932;29;20044;-70
2021/11/22 08:40:47;;;;;;;46.95;30.08;;;;;;;13.37;100.00;100976.13;4922410;29;20114;-71
2021/11/22 08:43:33;;;;;;;46.33;30.08;;;;;;;13.08;100.00;100980.34;4922980;29;20074;-73
2021/11/22 08:46:24;;;;;;;46.22;30.08;;;;;;;14.08;100.00;100982.13;4936288;29;20189;-69
2021/11/22 08:49:10;;;;;;;43.13;28.45;;;;;;;14.37;100.00;100980.44;4936958;29;20099;-70
2021/11/22 08:51:56;;;;;;;48.55;29.25;;;;;;;13.72;100.00;100980.47;4922904;29;20395;-70
2021/11/22 08:54:43;;;;;;;44.08;30.20;;;;;;;13.18;100.00;100968.72;4923818;29;20062;-71
2021/11/22 08:57:29;;;;;;;45.60;31.17;;;;;;;13.12;100.00;100964.47;4936466;29;20026;-70
2021/11/22 09:00:25;;;;;;;46.85;30.90;;;;;;;13.77;100.00;100973.31;4937094;29;20020;-70
2021/11/22 09:03:11;;;;;;;41.60;28.33;;;;;;;13.84;100.00;100975.78;4923206;29;20039;-70
2021/11/22 09:05:57;;;;;;;41.95;27.33;;;;;;;14.19;100.00;100964.25;4923747;29;20031;-73
2021/11/22 09:08:42;;;;;;;44.55;29.38;;;;;;;13.99;100.00;100959.53;4935773;29;20040;-71
2021/11/22 09:11:28;;;;;;;39.72;27.63;;;;;;;13.49;100.00;100962.66;4923117;29;20027;-71
2021/11/22 09:14:14;;;;;;;38.30;28.05;;;;;;;13.44;100.00;100947.88;4935504;29;20446;-70
2021/11/22 09:17:00;;;;;;;35.33;27.02;;;;;;;14.20;100.00;100948.38;4923131;29;20138;-70
2021/11/22 09:19:46;;;;;;;42.60;29.90;;;;;;;13.96;100.00;100941.19;4922133;29;20038;-70
2021/11/22 09:22:32;;;;;;;44.20;29.33;;;;;;;14.32;100.00;100944.59;4935922;29;20042;-70
2021/11/22 09:25:18;;;;;;;44.28;30.00;;;;;;;14.05;100.00;100947.97;4936062;29;20039;-69
2021/11/22 09:28:04;;;;;;;45.25;30.30;;;;;;;14.17;100.00;100951.13;4936690;29;20028;-71
2021/11/22 09:30:50;;;;;;;40.95;29.15;;;;;;;14.04;100.00;100962.03;4936626;29;20425;-68
2021/11/22 09:33:36;;;;;;;43.33;28.02;;;;;;;13.76;100.00;100954.03;4937074;29;20043;-70
2021/11/22 09:36:23;;;;;;;39.85;26.90;;;;;;;13.53;100.00;100953.78;4935174;29;20063;-71
2021/11/22 09:39:09;;;;;;;41.30;27.48;;;;;;;13.64;100.00;100953.50;4936806;29;20074;-70
2021/11/22 09:41:55;;;;;;;37.72;27.63;;;;;;;13.34;100.00;100949.88;4922753;29;20044;-69
2021/11/22 09:44:42;;;;;;;41.75;27.83;;;;;;;13.94;100.00;100945.63;4936275;29;20347;-70
2021/11/22 09:47:28;;;;;;;48.15;29.02;;;;;;;14.25;100.00;100933.34;4936952;29;20035;-69
2021/11/22 09:50:16;;;;;;;40.47;28.77;;;;;;;13.88;100.00;100937.03;4938901;29;20043;-70
2021/11/22 09:53:04;;;;;;;42.80;29.02;;;;;;;14.61;100.00;100934.91;4939156;29;20465;-70
2021/11/22 09:55:53;;;;;;;50.35;31.67;;;;;;;14.45;100.00;100938.03;4926703;29;20355;-72
2021/11/22 09:58:39;;;;;;;43.30;30.55;;;;;;;14.68;100.00;100927.66;4940651;29;20165;-69
2021/11/22 10:01:29;;;;;;;43.60;31.55;;;;;;;14.45;100.00;100930.13;4940200;29;20024;-71
2021/11/22 10:04:17;;;;;;;51.80;33.10;;;;;;;14.47;100.00;100923.91;4940820;29;20453;-68
2021/11/22 10:07:06;;;;;;;45.92;32.22;;;;;;;14.86;100.00;100918.31;4924793;29;20454;-70
2021/11/22 10:09:52;;;;;;;47.58;33.05;;;;;;;15.23;100.00;100916.22;4940303;29;20039;-70
2021/11/22 10:12:40;;;;;;;51.13;32.67;;;;;;;15.32;100.00;100915.91;4939744;29;20474;-68
2021/11/22 10:15:33;;;;;;;52.05;33.55;;;;;;;15.31;100.00;100917.66;4925891;29;20047;-70
2021/11/22 10:18:24;;;;;;;53.85;34.28;;;;;;;15.34;100.00;100924.66;4925150;29;20071;-69
2021/11/22 10:21:12;;;;;;;54.72;35.28;;;;;;;15.96;100.00;100915.41;4925663;29;20028;-70
2021/11/22 10:24:02;;;;;;;59.40;34.55;;;;;;;15.74;100.00;100915.31;4939842;29;20024;-70
2021/11/22 10:26:52;;;;;;;52.40;33.22;;;;;;;15.67;100.00;100912.97;4939370;29;20058;-69
2021/11/22 10:29:38;;;;;;;58.88;35.08;;;;;;;15.24;100.00;100917.94;4926121;29;20027;-70
2021/11/22 10:32:33;;;;;;;50.40;32.88;;;;;;;15.58;100.00;100916.75;4939105;29;20029;-72
2021/11/22 10:35:23;;;;;;;63.38;35.47;;;;;;;15.85;100.00;100920.22;4939642;29;20036;-70
2021/11/22 10:38:18;;;;;;;53.05;33.40;;;;;;;16.24;100.00;100918.78;4925567;29;20058;-69
2021/11/22 10:41:10;;;;;;;60.80;33.63;;;;;;;16.01;100.00;100911.69;4924241;29;20352;-70
2021/11/22 10:44:01;;;;;;;52.58;31.50;;;;;;;15.88;100.00;100910.41;4939031;29;20439;-69
2021/11/22 10:46:55;;;;;;;53.05;30.88;;;;;;;16.09;100.00;100906.13;4939158;29;20078;-70
2021/11/22 10:52:35;;;;;;;56.70;28.95;;;;;;;15.91;100.00;100901.50;4939438;29;20036;-70
2021/11/22 10:55:23;;;;;;;51.72;28.00;;;;;;;16.64;100.00;100903.16;4938816;29;20103;-70
2021/11/22 10:58:09;;;;;;;47.95;26.15;;;;;;;16.04;100.00;100902.78;4923894;29;20031;-71
2021/11/22 11:00:55;;;;;;;55.92;26.05;;;;;;;16.12;100.00;100898.09;4937982;29;20090;-71
2021/11/22 11:03:49;;;;;;;48.58;27.73;;;;;;;16.39;100.00;100902.34;4937545;29;20110;-71
2021/11/22 11:06:56;;;;;;;50.03;25.38;;;;;;;16.53;100.00;100905.34;4938882;29;20039;-71
2021/11/22 11:09:53;;;;;;;44.40;24.58;;;;;;;16.75;100.00;100892.97;4938477;29;20024;-69
2021/11/22 11:12:43;;;;;;;50.70;27.63;;;;;;;16.55;100.00;100893.75;4924588;29;20035;-70
2021/11/22 11:15:29;;;;;;;40.88;24.10;;;;;;;17.31;99.67;100894.16;4938819;29;20488;-70
2021/11/22 11:18:23;;;;;;;46.28;25.98;;;;;;;17.17;100.00;100899.19;4938547;29;20063;-71
2021/11/22 11:21:09;;;;;;;41.50;23.52;;;;;;;16.98;100.00;100892.91;4924454;29;20114;-70
2021/11/22 11:23:57;;;;;;;40.22;23.58;;;;;;;17.09;100.00;100894.22;4925249;29;20529;-70
2021/11/22 11:26:46;;;;;;;41.63;23.33;;;;;;;17.55;99.99;100896.69;4924807;29;20047;-70
2021/11/22 11:29:33;;;;;;;42.80;24.35;;;;;;;17.26;100.00;100893.50;4938592;29;20137;-71
2021/11/22 11:32:19;;;;;;;35.22;22.60;;;;;;;17.36;100.00;100886.91;4924191;29;20031;-71
2021/11/22 11:35:14;;;;;;;43.05;24.35;;;;;;;17.30;100.00;100895.97;4924873;29;20032;-70
2021/11/22 11:38:13;;;;;;;39.30;22.15;;;;;;;17.76;98.75;100889.59;4937830;29;20126;-71
2021/11/22 11:41:29;;;;;;;37.65;21.40;;;;;;;18.05;97.31;100881.19;4938606;29;20027;-71
2021/11/22 11:44:23;;;;;;;38.78;22.48;;;;;;;17.97;94.74;100884.19;4938047;29;20039;-70
2021/11/22 11:48:03;;;;;;;36.88;22.40;;;;;;;17.94;95.50;100878.16;4924082;29;20028;-69
2021/11/22 11:50:49;;;;;;;39.00;22.25;;;;;;;17.41;98.24;100877.00;4899427;29;20051;-69
2021/11/22 11:53:37;;;;;;;35.17;22.17;;;;;;;17.60;97.77;100875.28;4938353;29;20031;-70
2021/11/22 11:56:30;;;;;;;36.17;22.48;;;;;;;17.02;99.77;100886.56;4924096;29;20027;-69
2021/11/22 11:59:42;;;;;;;35.88;22.30;;;;;;;17.58;97.26;100880.66;4924377;29;20059;-69
2021/11/22 12:02:30;;;;;;;38.63;21.50;;;;;;;17.20;100.00;100877.88;4936872;29;20110;-69
2021/11/22 12:05:16;;;;;;;31.45;20.70;;;;;;;17.48;98.35;100871.38;4924150;29;20055;-69
2021/11/22 12:08:32;;;;;;;30.35;20.45;;;;;;;17.56;95.74;100876.34;4937355;29;20031;-70
2021/11/22 12:11:33;;;;;;;30.73;20.23;;;;;;;17.48;97.00;100876.66;4937818;29;20027;-69
2021/11/22 12:14:47;;;;;;;25.38;18.25;;;;;;;17.34;98.22;100876.38;4937377;29;20374;-70
2021/11/22 12:17:41;;;;;;;34.67;18.77;;;;;;;17.24;96.38;100882.13;4936447;29;20016;-69
2021/11/22 12:20:27;;;;;;;30.63;19.20;;;;;;;17.15;98.21;100879.84;4937129;29;20042;-70
2021/11/22 12:23:17;;;;;;;31.58;19.75;;;;;;;17.10;99.36;100884.47;4937646;29;20024;-70
2021/11/22 12:26:03;;;;;;;30.30;19.80;;;;;;;16.98;99.22;100877.03;4937212;29;20065;-69
2021/11/22 12:28:50;;;;;;;27.92;18.95;;;;;;;17.03;100.00;100881.22;4922773;29;20358;-69
2021/11/22 12:31:48;;;;;;;26.17;18.92;;;;;;;17.11;99.58;100886.19;4937114;29;20031;-69
2021/11/22 12:34:34;;;;;;;27.10;18.00;;;;;;;16.97;100.00;100883.25;4924232;29;20031;-70
2021/11/22 12:37:29;;;;;;;28.92;19.23;;;;;;;16.75;100.00;100872.69;4923611;29;20059;-69
2021/11/22 12:40:27;;;;;;;26.95;18.25;;;;;;;17.16;100.00;100878.94;4922934;29;20042;-69
2021/11/22 12:43:14;;;;;;;29.10;18.77;;;;;;;17.05;100.00;100873.22;4937271;29;20035;-70